Time;durP1;ratioP1;P1;durP2;ratioP2;P2;SDS_P1;SDS_P2;PMS_P1;PMS_P2;Temp;Humidity;BMP_temperature;BMP_pressure;BME280_temperature;BME280_humidity;BME280_pressure;Samples;Min_cycle;Max_cycle;Signal;HPM_P1;HPM_P2
2021/11/05 00:00:36;;;;;;;7.38;4.53;;;;;;;5.57;98.29;98669.72;5035608;28;20022;-67
2021/11/05 00:03:02;;;;;;;7.47;4.72;;;;;;;5.44;99.82;98667.59;5034380;28;20030;-67
2021/11/05 00:05:28;;;;;;;5.30;4.13;;;;;;;5.47;99.71;98669.94;5028095;28;20035;-67
2021/11/05 00:07:54;;;;;;;5.75;4.05;;;;;;;5.47;100.00;98672.63;5033195;28;20544;-67
2021/11/05 00:10:21;;;;;;;9.25;4.72;;;;;;;5.42;100.00;98674.16;5021536;28;20037;-67
2021/11/05 00:12:47;;;;;;;8.30;4.85;;;;;;;5.33;100.00;98669.84;5011600;28;20026;-67
2021/11/05 00:15:13;;;;;;;9.93;5.47;;;;;;;5.22;100.00;98676.41;5026814;28;20057;-67
2021/11/05 00:17:38;;;;;;;10.63;5.90;;;;;;;5.21;100.00;98674.72;5031146;28;20094;-67
2021/11/05 00:20:05;;;;;;;11.55;6.07;;;;;;;5.18;100.00;98675.91;5029542;28;20068;-66
2021/11/05 00:22:30;;;;;;;10.05;5.78;;;;;;;5.20;100.00;98692.66;5032128;28;20056;-67
2021/11/05 00:24:55;;;;;;;9.07;5.30;;;;;;;5.24;100.00;98685.97;5030485;28;20108;-67
2021/11/05 00:27:21;;;;;;;6.72;4.72;;;;;;;5.27;100.00;98688.31;5027129;28;20797;-67
2021/11/05 00:29:46;;;;;;;8.60;4.80;;;;;;;5.24;100.00;98680.59;5019971;28;20037;-67
2021/11/05 00:32:12;;;;;;;6.82;4.65;;;;;;;5.22;100.00;98687.16;5012779;28;20018;-67
2021/11/05 00:34:38;;;;;;;8.18;5.10;;;;;;;5.11;100.00;98674.09;5019879;28;20754;-67
2021/11/05 00:37:03;;;;;;;6.82;4.63;;;;;;;5.23;100.00;98691.50;5021627;28;20037;-67
2021/11/05 00:39:28;;;;;;;7.90;5.10;;;;;;;5.16;100.00;98702.09;5030441;28;20467;-67
2021/11/05 00:41:54;;;;;;;7.25;4.80;;;;;;;5.15;100.00;98699.56;5030599;28;20025;-67
2021/11/05 00:44:19;;;;;;;6.95;4.88;;;;;;;5.12;100.00;98699.91;5023404;28;20042;-67
2021/11/05 00:46:44;;;;;;;9.25;5.20;;;;;;;5.14;100.00;98704.09;5020598;28;20034;-67
2021/11/05 00:49:10;;;;;;;9.52;5.75;;;;;;;5.14;100.00;98697.91;5020994;28;20036;-67
2021/11/05 00:51:35;;;;;;;13.70;5.55;;;;;;;5.12;100.00;98714.16;5030181;28;20104;-67
2021/11/05 00:54:01;;;;;;;9.93;5.13;;;;;;;5.11;100.00;98711.63;5026833;28;20542;-67
2021/11/05 00:56:26;;;;;;;8.57;5.47;;;;;;;5.05;100.00;98695.22;5022610;28;20030;-67
2021/11/05 00:58:51;;;;;;;8.02;5.25;;;;;;;5.18;100.00;98707.25;5030375;28;20120;-67
2021/11/05 01:01:17;;;;;;;10.13;5.75;;;;;;;5.12;100.00;98705.28;5028872;28;20108;-68
2021/11/05 01:03:42;;;;;;;9.27;5.65;;;;;;;5.25;100.00;98709.09;5027246;28;20037;-67
2021/11/05 01:06:08;;;;;;;9.13;5.55;;;;;;;5.24;100.00;98711.97;5030259;28;20067;-67
2021/11/05 01:08:33;;;;;;;7.70;5.00;;;;;;;5.21;100.00;98714.97;5028779;28;20025;-67
2021/11/05 01:10:58;;;;;;;9.60;5.68;;;;;;;5.18;100.00;98718.81;5030710;28;20032;-67
2021/11/05 01:13:25;;;;;;;10.63;6.05;;;;;;;5.17;100.00;98727.88;5029368;28;20033;-68
2021/11/05 01:15:50;;;;;;;9.07;5.50;;;;;;;5.14;100.00;98724.72;5023561;28;20047;-67
2021/11/05 01:18:16;;;;;;;7.68;5.63;;;;;;;5.15;100.00;98724.53;5025537;28;20111;-67
2021/11/05 01:20:41;;;;;;;8.70;5.47;;;;;;;5.20;100.00;98732.06;5011067;28;20028;-67
2021/11/05 01:23:07;;;;;;;9.35;5.70;;;;;;;5.33;100.00;98726.19;5037013;28;20083;-68
2021/11/05 01:25:34;;;;;;;8.98;6.38;;;;;;;5.46;100.00;98724.63;5037981;28;20254;-68
2021/11/05 01:28:00;;;;;;;11.77;6.63;;;;;;;5.37;100.00;98724.81;5033695;28;20044;-68
2021/11/05 01:30:25;;;;;;;9.25;5.97;;;;;;;5.36;100.00;98726.66;5027848;28;20026;-68
2021/11/05 01:32:50;;;;;;;9.93;6.20;;;;;;;5.36;100.00;98729.34;5021496;28;20108;-67
2021/11/05 01:35:16;;;;;;;9.07;5.50;;;;;;;5.29;100.00;98731.03;5014660;28;20502;-68
2021/11/05 01:37:42;;;;;;;9.25;5.40;;;;;;;5.24;100.00;98734.25;5015706;28;20112;-68
2021/11/05 01:40:09;;;;;;;8.95;5.88;;;;;;;5.24;100.00;98736.09;5029218;28;20164;-69
2021/11/05 01:42:35;;;;;;;12.30;6.43;;;;;;;5.13;100.00;98720.34;5028605;28;20021;-67
2021/11/05 01:45:01;;;;;;;9.10;5.68;;;;;;;5.18;100.00;98728.72;5025557;28;20459;-68
2021/11/05 01:47:26;;;;;;;8.60;5.97;;;;;;;5.26;100.00;98742.94;5022083;28;20120;-68
2021/11/05 01:49:52;;;;;;;10.25;6.60;;;;;;;5.26;100.00;98742.09;5022117;28;20033;-68
2021/11/05 01:52:18;;;;;;;10.70;6.18;;;;;;;5.24;100.00;98744.97;5027877;28;20079;-68
2021/11/05 01:54:44;;;;;;;9.80;6.38;;;;;;;5.24;100.00;98739.63;5028139;28;20029;-68
2021/11/05 01:57:09;;;;;;;7.78;6.13;;;;;;;5.17;100.00;98743.97;5029667;28;20044;-67
2021/11/05 01:59:36;;;;;;;7.53;5.25;;;;;;;5.01;100.00;98733.28;5022840;28;20080;-67
2021/11/05 02:02:05;;;;;;;7.70;5.40;;;;;;;5.12;100.00;98751.69;5020050;28;20056;-67
2021/11/05 02:04:30;;;;;;;6.72;5.03;;;;;;;5.11;100.00;98749.16;5025060;28;20592;-68
2021/11/05 02:06:56;;;;;;;9.23;5.75;;;;;;;5.09;100.00;98749.34;5012013;28;20113;-67
2021/11/05 02:09:28;;;;;;;8.13;5.57;;;;;;;5.17;100.00;98756.56;5028364;28;20029;-68
2021/11/05 02:11:57;;;;;;;8.20;5.50;;;;;;;5.31;100.00;98755.84;5029190;28;20080;-68
2021/11/05 02:14:26;;;;;;;14.20;5.43;;;;;;;5.33;100.00;98756.50;5023357;28;20030;-68
2021/11/05 02:16:54;;;;;;;6.43;4.32;;;;;;;5.25;100.00;98752.00;5009741;28;20557;-68
2021/11/05 02:19:22;;;;;;;9.30;5.38;;;;;;;5.25;100.00;98762.72;5027527;28;20163;-68
2021/11/05 02:21:49;;;;;;;9.07;6.18;;;;;;;5.20;100.00;98765.09;5031191;28;20404;-68
2021/11/05 02:24:16;;;;;;;7.22;5.32;;;;;;;5.29;100.00;98760.53;5028956;28;20052;-67
2021/11/05 02:26:43;;;;;;;9.18;5.28;;;;;;;5.24;100.00;98757.56;5010764;28;20025;-68
2021/11/05 02:29:09;;;;;;;12.27;5.82;;;;;;;5.26;100.00;98763.56;5009152;28;20034;-68
2021/11/05 02:31:35;;;;;;;9.77;5.68;;;;;;;5.12;100.00;98740.13;5028688;28;20030;-67
2021/11/05 02:34:00;;;;;;;10.32;6.15;;;;;;;5.17;100.00;98769.97;5027578;28;20036;-67
2021/11/05 02:36:26;;;;;;;8.40;5.90;;;;;;;5.00;100.00;98743.19;5016169;28;20411;-68
2021/11/05 02:38:52;;;;;;;8.52;5.75;;;;;;;5.06;100.00;98771.16;5044683;28;20043;-67
2021/11/05 02:41:20;;;;;;;10.75;6.25;;;;;;;5.05;100.00;98772.97;5029445;28;20395;-67
2021/11/05 02:43:46;;;;;;;10.52;6.75;;;;;;;5.09;100.00;98770.81;5020375;28;20033;-67
2021/11/05 02:46:11;;;;;;;9.35;6.35;;;;;;;5.01;100.00;98770.81;5026518;28;20033;-68
2021/11/05 02:48:37;;;;;;;11.52;7.20;;;;;;;5.05;100.00;98783.69;5030594;28;20029;-67
2021/11/05 02:51:02;;;;;;;9.73;6.43;;;;;;;4.96;100.00;98768.63;5012437;28;20799;-68
2021/11/05 02:53:28;;;;;;;9.82;6.68;;;;;;;5.10;100.00;98793.91;5013902;28;20041;-67
2021/11/05 02:55:53;;;;;;;11.32;5.90;;;;;;;5.11;100.00;98797.44;5024163;28;20034;-68
2021/11/05 02:58:20;;;;;;;9.32;5.97;;;;;;;5.13;100.00;98801.63;5026194;28;20100;-67
2021/11/05 03:00:46;;;;;;;7.97;5.95;;;;;;;5.14;100.00;98802.50;5029170;28;20510;-68
2021/11/05 03:03:12;;;;;;;11.02;6.03;;;;;;;5.04;100.00;98790.06;5032360;28;20038;-67
2021/11/05 03:05:39;;;;;;;9.98;5.90;;;;;;;5.12;100.00;98802.66;5029230;28;20580;-68
2021/11/05 03:08:04;;;;;;;9.70;6.47;;;;;;;5.12;100.00;98799.97;5032055;28;20044;-68
2021/11/05 03:10:31;;;;;;;8.88;5.45;;;;;;;5.11;100.00;98800.13;5030648;28;20116;-67
2021/11/05 03:12:56;;;;;;;10.52;5.97;;;;;;;4.97;100.00;98781.03;5044667;28;20394;-68
2021/11/05 03:15:22;;;;;;;10.60;6.20;;;;;;;5.12;100.00;98812.53;5029407;28;20038;-67
2021/11/05 03:17:47;;;;;;;9.63;6.45;;;;;;;5.07;100.00;98815.72;5031492;28;20060;-68
2021/11/05 03:20:14;;;;;;;10.32;7.45;;;;;;;5.02;100.00;98810.84;5015097;28;20026;-68
2021/11/05 03:22:40;;;;;;;10.48;7.30;;;;;;;5.05;100.00;98799.78;5016496;28;20033;-67
2021/11/05 03:25:06;;;;;;;9.23;6.50;;;;;;;5.26;100.00;98810.00;5032594;28;20471;-67
2021/11/05 03:27:32;;;;;;;11.20;6.35;;;;;;;5.20;100.00;98823.25;5016401;28;20117;-67
2021/11/05 03:29:58;;;;;;;9.23;6.13;;;;;;;5.29;100.00;98819.56;5028474;28;20503;-67
2021/11/05 03:32:23;;;;;;;9.90;6.25;;;;;;;5.19;100.00;98830.47;5025535;28;20021;-67
2021/11/05 03:34:49;;;;;;;9.23;6.55;;;;;;;5.25;100.00;98828.97;5013448;28;20026;-68
2021/11/05 03:37:14;;;;;;;8.15;5.63;;;;;;;5.28;100.00;98818.72;5029935;28;20033;-67
2021/11/05 03:39:39;;;;;;;7.95;5.72;;;;;;;5.43;100.00;98829.59;5027223;28;20116;-67
2021/11/05 03:42:05;;;;;;;8.35;5.93;;;;;;;5.48;100.00;98835.31;5023483;28;20021;-67
2021/11/05 03:44:31;;;;;;;9.30;5.38;;;;;;;5.36;100.00;98830.47;5023774;28;20038;-67
2021/11/05 03:46:56;;;;;;;10.20;5.22;;;;;;;5.35;100.00;98837.66;5029046;28;20469;-67
2021/11/05 03:49:22;;;;;;;9.55;5.78;;;;;;;5.30;100.00;98833.81;5023835;28;20030;-67
2021/11/05 03:51:48;;;;;;;12.38;5.72;;;;;;;5.23;100.00;98847.06;5023282;28;20032;-68
2021/11/05 03:54:13;;;;;;;9.63;5.78;;;;;;;5.25;100.00;98847.72;5020089;28;20029;-68
2021/11/05 03:56:39;;;;;;;10.55;6.30;;;;;;;5.31;100.00;98843.53;5024825;28;20057;-67
2021/11/05 03:59:04;;;;;;;9.02;5.85;;;;;;;5.31;100.00;98847.06;5029107;28;20036;-68
2021/11/05 04:01:30;;;;;;;7.85;5.82;;;;;;;5.19;100.00;98841.19;5031536;28;20021;-68
2021/11/05 04:03:56;;;;;;;8.10;5.75;;;;;;;5.26;100.00;98852.09;5029754;28;20034;-68
2021/11/05 04:06:22;;;;;;;9.32;5.72;;;;;;;5.27;100.00;98857.28;5022379;28;20036;-67
2021/11/05 04:08:48;;;;;;;9.40;6.55;;;;;;;5.34;100.00;98862.81;5031320;28;20025;-68
2021/11/05 04:11:14;;;;;;;8.82;5.55;;;;;;;5.29;100.00;98870.50;5013307;28;20403;-68
2021/11/05 04:13:39;;;;;;;10.55;5.82;;;;;;;5.38;100.00;98869.53;5029983;28;20037;-67
2021/11/05 04:16:05;;;;;;;8.07;5.70;;;;;;;5.41;100.00;98876.41;5022078;28;20033;-68
2021/11/05 04:18:30;;;;;;;11.82;6.40;;;;;;;5.33;100.00;98860.31;5014775;28;20037;-68
2021/11/05 04:20:56;;;;;;;10.13;6.22;;;;;;;5.34;100.00;98883.44;5017044;28;20006;-68
2021/11/05 04:23:22;;;;;;;10.43;5.85;;;;;;;5.41;100.00;98881.75;5038814;28;20017;-68
2021/11/05 04:25:47;;;;;;;9.88;5.40;;;;;;;5.31;100.00;98883.78;5053181;28;20033;-68
2021/11/05 04:28:14;;;;;;;8.48;6.30;;;;;;;5.36;100.00;98882.25;5052310;28;20072;-68
2021/11/05 04:30:39;;;;;;;10.35;5.65;;;;;;;5.29;100.00;98883.94;5054262;28;20060;-68
2021/11/05 04:33:06;;;;;;;9.07;6.07;;;;;;;5.28;100.00;98896.50;5046045;28;20037;-69
2021/11/05 04:35:32;;;;;;;14.27;6.03;;;;;;;5.32;100.00;98897.03;5051402;28;20088;-69
2021/11/05 04:37:57;;;;;;;8.00;5.70;;;;;;;5.26;100.00;98895.84;5034334;28;20021;-68
2021/11/05 04:40:23;;;;;;;9.45;5.82;;;;;;;5.37;100.00;98901.88;5030916;28;20030;-68
2021/11/05 04:42:48;;;;;;;8.85;5.55;;;;;;;5.38;100.00;98899.03;5051076;28;20041;-68
2021/11/05 04:45:13;;;;;;;9.18;5.97;;;;;;;5.30;100.00;98893.66;5039941;28;20038;-67
2021/11/05 04:47:39;;;;;;;9.68;6.00;;;;;;;5.31;100.00;98902.56;5030793;28;20017;-67
2021/11/05 04:50:06;;;;;;;8.20;5.50;;;;;;;5.28;100.00;98911.78;5018432;28;20136;-67
2021/11/05 04:52:31;;;;;;;9.65;6.60;;;;;;;5.29;100.00;98908.06;5031113;28;20064;-68
2021/11/05 04:54:56;;;;;;;11.30;5.93;;;;;;;5.38;100.00;98907.09;5032009;28;20639;-68
2021/11/05 04:57:22;;;;;;;10.63;6.25;;;;;;;5.33;100.00;98913.97;5032031;28;20041;-68
2021/11/05 04:59:47;;;;;;;9.15;5.82;;;;;;;5.32;100.00;98918.50;5030673;28;20084;-68
2021/11/05 05:02:12;;;;;;;11.38;6.78;;;;;;;5.27;100.00;98924.34;5016910;28;20026;-67
2021/11/05 05:04:38;;;;;;;10.20;6.80;;;;;;;5.25;100.00;98926.34;5014214;28;20029;-67
2021/11/05 05:07:03;;;;;;;8.75;6.07;;;;;;;5.27;100.00;98918.16;5028388;28;20045;-68
2021/11/05 05:09:29;;;;;;;11.35;6.05;;;;;;;5.21;100.00;98910.75;5031363;28;20079;-68
2021/11/05 05:11:54;;;;;;;9.77;6.13;;;;;;;5.25;100.00;98917.47;5040596;28;20033;-68
2021/11/05 05:14:19;;;;;;;10.32;6.22;;;;;;;5.22;100.00;98913.28;5021020;28;20434;-67
2021/11/05 05:16:45;;;;;;;11.02;7.20;;;;;;;5.23;100.00;98930.22;5032578;28;20075;-68
2021/11/05 05:19:10;;;;;;;8.52;6.18;;;;;;;5.32;100.00;98933.72;5024181;28;20049;-67
2021/11/05 05:21:36;;;;;;;10.88;5.88;;;;;;;5.31;100.00;98932.91;5015862;28;20033;-68
2021/11/05 05:24:02;;;;;;;10.75;6.72;;;;;;;5.33;100.00;98935.41;5027193;28;20084;-68
2021/11/05 05:26:28;;;;;;;9.68;5.90;;;;;;;5.27;100.00;98942.28;5026161;28;20058;-68
2021/11/05 05:28:53;;;;;;;9.93;6.85;;;;;;;5.25;100.00;98947.81;5026868;28;20387;-68
2021/11/05 05:31:18;;;;;;;9.88;6.50;;;;;;;5.26;100.00;98946.78;5031704;28;20593;-67
2021/11/05 05:33:44;;;;;;;12.77;6.75;;;;;;;5.24;100.00;98939.94;5019246;28;20026;-68
2021/11/05 05:36:10;;;;;;;11.57;6.63;;;;;;;5.24;100.00;98943.47;5032385;28;20029;-68
2021/11/05 05:38:36;;;;;;;11.20;7.10;;;;;;;5.19;100.00;98953.03;5043991;28;20025;-67
2021/11/05 05:41:03;;;;;;;11.77;7.30;;;;;;;5.13;100.00;98935.72;5041862;28;20089;-74
2021/11/05 05:43:28;;;;;;;12.88;7.47;;;;;;;5.26;100.00;98954.00;5043758;28;20030;-74
2021/11/05 05:45:54;;;;;;;10.77;7.32;;;;;;;5.25;100.00;98957.72;5048540;28;20121;-74
2021/11/05 05:48:20;;;;;;;13.45;8.07;;;;;;;5.15;100.00;98944.44;5047338;28;20033;-74
2021/11/05 05:50:46;;;;;;;9.75;6.82;;;;;;;5.29;100.00;98972.44;5033519;28;20018;-74
2021/11/05 05:53:11;;;;;;;12.00;7.38;;;;;;;5.30;100.00;98973.31;5042276;28;20287;-75
2021/11/05 05:55:39;;;;;;;10.27;6.63;;;;;;;5.34;100.00;98980.84;5041294;28;20030;-74
2021/11/05 05:58:05;;;;;;;11.57;7.25;;;;;;;5.33;100.00;98978.34;5050816;28;20041;-76
2021/11/05 06:00:31;;;;;;;14.77;7.13;;;;;;;5.26;100.00;98983.53;5050209;28;20565;-75
2021/11/05 06:02:57;;;;;;;11.43;6.85;;;;;;;5.24;100.00;98969.47;5056061;28;20025;-76
2021/11/05 06:05:32;;;;;;;10.02;6.35;;;;;;;5.29;100.00;98980.50;5040678;28;20035;-75
2021/11/05 06:07:57;;;;;;;11.05;7.45;;;;;;;5.27;100.00;98977.16;5046721;28;20044;-79
2021/11/05 06:10:23;;;;;;;11.38;6.93;;;;;;;5.34;100.00;98996.94;5042044;28;22042;-76
2021/11/05 06:12:48;;;;;;;10.02;6.88;;;;;;;5.28;100.00;98993.06;5046033;28;20442;-74
2021/11/05 06:15:14;;;;;;;9.75;6.65;;;;;;;5.41;100.00;98992.59;5035711;28;20032;-75
2021/11/05 06:17:39;;;;;;;10.50;6.43;;;;;;;5.15;100.00;98992.72;5031288;28;20052;-70
2021/11/05 06:20:06;;;;;;;10.70;7.15;;;;;;;5.26;100.00;99013.03;5045186;28;20064;-69
2021/11/05 06:22:31;;;;;;;11.13;8.25;;;;;;;5.29;100.00;99018.06;5019248;28;20021;-70
2021/11/05 06:24:59;;;;;;;11.35;7.10;;;;;;;5.34;100.00;99015.72;5011776;28;20030;-68
2021/11/05 06:27:26;;;;;;;10.32;7.07;;;;;;;5.34;100.00;99029.13;5048138;28;20461;-69
2021/11/05 06:29:52;;;;;;;10.77;7.63;;;;;;;5.37;100.00;99036.88;5025935;28;20029;-69
2021/11/05 06:32:17;;;;;;;11.82;7.55;;;;;;;5.38;100.00;99038.53;5034459;28;20383;-66
2021/11/05 06:34:43;;;;;;;13.02;7.57;;;;;;;5.25;100.00;99022.09;5030497;28;20108;-66
2021/11/05 06:37:08;;;;;;;9.70;6.72;;;;;;;5.31;100.00;99044.72;5017451;28;20036;-66
2021/11/05 06:39:34;;;;;;;10.57;7.32;;;;;;;5.40;100.00;99038.41;5012740;28;20121;-66
2021/11/05 06:41:59;;;;;;;10.32;7.28;;;;;;;5.35;100.00;99046.94;5026626;28;20022;-66
2021/11/05 06:44:25;;;;;;;9.85;6.72;;;;;;;5.18;100.00;99039.81;5032347;28;20030;-66
2021/11/05 06:46:51;;;;;;;12.43;7.78;;;;;;;5.31;100.00;99063.50;5030791;28;20071;-66
2021/11/05 06:49:16;;;;;;;10.80;7.38;;;;;;;5.32;100.00;99062.50;5030056;28;20033;-66
2021/11/05 06:51:42;;;;;;;10.40;7.43;;;;;;;5.25;100.00;99071.22;5030666;28;20025;-66
2021/11/05 06:54:07;;;;;;;14.43;6.82;;;;;;;5.24;100.00;99084.81;5016768;28;20037;-66
2021/11/05 06:56:32;;;;;;;12.73;7.93;;;;;;;5.17;100.00;99081.91;5019628;28;20495;-67
2021/11/05 06:59:00;;;;;;;11.85;7.50;;;;;;;5.23;100.00;99091.97;5022620;28;20029;-65
2021/11/05 07:01:25;;;;;;;12.88;7.47;;;;;;;5.24;100.00;99098.22;5017434;28;20026;-67
2021/11/05 07:03:51;;;;;;;13.52;7.53;;;;;;;5.26;100.00;99105.06;5021949;28;20036;-68
2021/11/05 07:06:17;;;;;;;10.75;7.15;;;;;;;5.30;100.00;99110.13;5020151;28;20394;-66
2021/11/05 07:08:42;;;;;;;11.60;7.38;;;;;;;5.30;100.00;99105.59;5013609;28;20029;-65
2021/11/05 07:11:07;;;;;;;12.93;7.65;;;;;;;5.32;100.00;99125.06;5025796;28;20616;-66
2021/11/05 07:13:33;;;;;;;10.13;6.65;;;;;;;5.31;100.00;99111.81;5022874;28;20021;-72
2021/11/05 07:15:59;;;;;;;10.05;6.78;;;;;;;5.36;100.00;99133.63;5023095;28;20030;-71
2021/11/05 07:18:24;;;;;;;10.30;6.88;;;;;;;5.47;100.00;99133.31;5028930;28;20036;-73
2021/11/05 07:20:51;;;;;;;11.15;6.63;;;;;;;5.38;100.00;99140.50;5023945;28;20055;-68
2021/11/05 07:23:18;;;;;;;9.63;6.53;;;;;;;5.40;100.00;99149.25;5028648;28;20044;-68
2021/11/05 07:25:43;;;;;;;10.45;6.80;;;;;;;5.40;100.00;99156.44;5037479;28;20033;-68
2021/11/05 07:28:09;;;;;;;10.18;6.80;;;;;;;5.54;100.00;99163.03;5032432;28;20104;-69
2021/11/05 07:30:34;;;;;;;11.65;6.97;;;;;;;5.52;100.00;99171.25;5029986;28;20496;-68
2021/11/05 07:33:00;;;;;;;9.82;6.03;;;;;;;5.36;100.00;99142.50;5028174;28;20052;-68
2021/11/05 07:35:25;;;;;;;11.38;6.20;;;;;;;5.32;100.00;99151.91;5032120;28;20040;-68
2021/11/05 07:37:52;;;;;;;11.07;6.45;;;;;;;5.47;100.00;99174.41;5023416;28;20030;-69
2021/11/05 07:40:18;;;;;;;9.40;6.43;;;;;;;5.56;100.00;99188.72;5013422;28;20494;-68
2021/11/05 07:42:45;;;;;;;10.77;6.80;;;;;;;5.58;100.00;99192.09;5016173;28;20033;-68
2021/11/05 07:45:14;;;;;;;11.95;6.45;;;;;;;5.61;100.00;99190.91;5019667;28;20022;-68
2021/11/05 07:47:40;;;;;;;8.77;6.22;;;;;;;5.65;100.00;99200.31;5015070;28;20609;-69
2021/11/05 07:50:06;;;;;;;9.68;5.95;;;;;;;5.76;100.00;99209.91;5018802;28;20513;-68
2021/11/05 07:52:32;;;;;;;11.55;5.75;;;;;;;5.74;100.00;99212.78;5032788;28;20029;-68
2021/11/05 07:54:57;;;;;;;10.40;5.32;;;;;;;5.54;100.00;99187.19;5032445;28;20467;-68
2021/11/05 07:57:23;;;;;;;13.00;5.72;;;;;;;5.76;100.00;99221.47;5032959;28;20040;-68
2021/11/05 07:59:49;;;;;;;8.50;5.28;;;;;;;5.85;100.00;99225.91;5030903;28;20502;-68
2021/11/05 08:02:15;;;;;;;9.07;6.18;;;;;;;5.94;100.00;99234.84;5033021;28;20379;-69
2021/11/05 08:04:40;;;;;;;7.95;5.28;;;;;;;5.97;100.00;99233.69;5026810;28;20025;-68
2021/11/05 08:07:06;;;;;;;16.25;8.13;;;;;;;6.04;100.00;99237.41;5014592;28;20384;-68
2021/11/05 08:09:31;;;;;;;13.20;7.15;;;;;;;5.99;100.00;99220.94;5029803;28;20037;-68
2021/11/05 08:11:58;;;;;;;10.70;6.68;;;;;;;6.13;100.00;99223.84;5017967;28;20108;-69
2021/11/05 08:14:23;;;;;;;12.73;6.72;;;;;;;6.30;100.00;99240.81;5022832;28;20039;-68
2021/11/05 08:16:48;;;;;;;9.35;6.07;;;;;;;6.34;100.00;99247.56;5012038;28;20457;-69
2021/11/05 08:19:14;;;;;;;7.93;5.22;;;;;;;6.39;100.00;99244.34;5048899;28;20037;-68
2021/11/05 08:21:39;;;;;;;7.40;5.07;;;;;;;6.48;100.00;99250.59;5052640;28;20025;-69
2021/11/05 08:24:05;;;;;;;12.00;6.38;;;;;;;6.63;100.00;99251.63;5046144;28;20029;-69
2021/11/05 08:26:31;;;;;;;7.60;5.93;;;;;;;6.61;100.00;99248.25;5031818;28;20037;-68
2021/11/05 08:28:58;;;;;;;9.93;6.22;;;;;;;6.81;100.00;99254.13;5030023;28;20033;-68
2021/11/05 08:31:25;;;;;;;9.27;6.07;;;;;;;6.84;100.00;99245.75;5031915;28;20026;-68
2021/11/05 08:33:50;;;;;;;9.70;5.82;;;;;;;7.10;100.00;99272.47;5032196;28;20132;-68
2021/11/05 08:36:18;;;;;;;7.90;5.50;;;;;;;7.09;100.00;99273.44;5032416;28;20486;-68
2021/11/05 08:38:45;;;;;;;9.70;5.65;;;;;;;7.11;100.00;99260.69;5018742;28;20061;-69
2021/11/05 08:41:16;;;;;;;6.68;4.72;;;;;;;7.32;100.00;99280.84;5019657;28;20119;-68
2021/11/05 08:43:42;;;;;;;12.80;4.53;;;;;;;7.36;100.00;99284.84;5029015;28;20033;-69
2021/11/05 08:46:07;;;;;;;6.88;4.20;;;;;;;7.46;100.00;99285.50;5021631;28;20419;-68
2021/11/05 08:48:34;;;;;;;5.28;3.85;;;;;;;7.55;100.00;99283.66;5031663;28;20040;-65
2021/11/05 08:51:05;;;;;;;5.30;3.80;;;;;;;7.28;100.00;99284.88;5017600;28;20041;-65
2021/11/05 08:53:30;;;;;;;6.88;4.38;;;;;;;7.51;100.00;99288.53;5033451;28;20064;-64
2021/11/05 08:55:56;;;;;;;8.23;5.00;;;;;;;7.44;100.00;99291.09;5021417;28;20487;-68
2021/11/05 08:58:23;;;;;;;4.97;3.35;;;;;;;7.67;100.00;99303.81;5034779;28;20022;-68
2021/11/05 09:00:48;;;;;;;4.78;3.47;;;;;;;7.52;100.00;99301.00;5035794;28;20423;-75
2021/11/05 09:03:14;;;;;;;4.63;3.28;;;;;;;7.58;100.00;99311.06;5039695;28;20029;-71
2021/11/05 09:05:40;;;;;;;7.50;3.90;;;;;;;7.31;100.00;99308.75;5038298;28;20036;-66
2021/11/05 09:08:05;;;;;;;6.45;3.53;;;;;;;7.54;100.00;99316.97;5033087;28;20033;-68
2021/11/05 09:10:31;;;;;;;6.25;3.45;;;;;;;7.61;100.00;99317.97;5042524;28;20029;-66
2021/11/05 09:12:57;;;;;;;4.45;3.33;;;;;;;7.60;100.00;99319.00;5033224;28;20024;-73
2021/11/05 09:15:26;;;;;;;4.85;3.67;;;;;;;7.69;100.00;99317.94;5028130;28;20104;-72
2021/11/05 09:17:53;;;;;;;7.82;3.90;;;;;;;7.57;100.00;99304.03;5042303;28;20017;-69
2021/11/05 09:20:19;;;;;;;5.47;3.65;;;;;;;7.71;100.00;99331.25;5051186;28;20446;-74
2021/11/05 09:22:45;;;;;;;8.52;4.25;;;;;;;7.62;100.00;99331.28;5035534;28;20095;-73
2021/11/05 09:25:11;;;;;;;5.70;4.10;;;;;;;7.42;100.00;99314.63;5053759;28;20043;-71
2021/11/05 09:27:36;;;;;;;5.72;4.00;;;;;;;7.54;100.00;99335.81;5062875;28;20111;-70
2021/11/05 09:30:05;;;;;;;7.97;4.00;;;;;;;7.59;100.00;99338.84;5038406;28;20053;-70
2021/11/05 09:32:31;;;;;;;4.55;3.67;;;;;;;7.64;100.00;99331.09;5034729;28;20018;-73
2021/11/05 09:34:56;;;;;;;6.38;3.70;;;;;;;7.79;100.00;99336.63;5044524;28;20083;-72
2021/11/05 09:37:22;;;;;;;6.10;4.03;;;;;;;8.00;100.00;99352.22;5048151;28;20035;-74
2021/11/05 09:39:47;;;;;;;4.65;3.20;;;;;;;8.19;100.00;99342.88;5050111;28;20029;-72
2021/11/05 09:42:16;;;;;;;4.70;3.40;;;;;;;8.33;99.46;99347.50;5033192;28;20022;-72
2021/11/05 09:44:43;;;;;;;4.25;3.28;;;;;;;8.24;98.88;99356.66;5035924;28;20036;-73
2021/11/05 09:47:09;;;;;;;7.88;3.20;;;;;;;8.23;97.35;99358.53;5043784;28;20065;-71
2021/11/05 09:49:35;;;;;;;4.47;3.72;;;;;;;8.21;96.08;99370.50;5025250;28;20067;-71
2021/11/05 09:52:03;;;;;;;4.78;3.47;;;;;;;8.24;94.72;99367.44;5026404;28;20041;-72
2021/11/05 09:54:32;;;;;;;8.35;3.60;;;;;;;8.11;96.31;99371.53;5023974;28;20122;-67
2021/11/05 09:56:58;;;;;;;4.82;3.22;;;;;;;8.19;95.12;99365.28;5023697;28;20038;-74
2021/11/05 09:59:24;;;;;;;4.35;3.38;;;;;;;8.32;93.34;99351.25;5022328;28;20025;-71
2021/11/05 10:01:49;;;;;;;8.80;3.50;;;;;;;8.70;92.39;99381.94;5064791;28;20373;-71
2021/11/05 10:04:15;;;;;;;5.63;3.30;;;;;;;8.82;91.16;99389.63;5054993;28;20091;-67
2021/11/05 10:07:03;;;;;;;5.38;3.80;;;;;;;8.88;91.90;99386.19;5046137;28;20600;-66
2021/11/05 10:09:50;;;;;;;5.38;3.63;;;;;;;8.97;91.38;99394.06;5036511;28;20048;-68
2021/11/05 10:12:35;;;;;;;5.70;3.67;;;;;;;8.91;89.65;99384.00;5046173;28;20033;-73
2021/11/05 10:15:05;;;;;;;4.35;3.10;;;;;;;9.03;89.67;99392.50;5042023;28;20033;-72
2021/11/05 10:17:33;;;;;;;4.85;3.40;;;;;;;8.80;89.71;99391.66;5053828;28;20040;-70
2021/11/05 10:20:06;;;;;;;6.20;4.13;;;;;;;8.56;90.53;99397.00;5039515;28;20109;-71
2021/11/05 10:22:49;;;;;;;6.88;3.85;;;;;;;8.70;90.31;99394.59;5031712;28;20582;-70
2021/11/05 10:25:19;;;;;;;5.47;3.58;;;;;;;8.65;89.75;99375.41;5047358;28;20022;-72
2021/11/05 10:27:45;;;;;;;5.63;3.70;;;;;;;8.72;90.21;99406.03;5035000;28;20033;-72
2021/11/05 10:30:10;;;;;;;5.80;3.65;;;;;;;8.86;89.82;99407.16;5026551;28;20040;-72
2021/11/05 10:32:40;;;;;;;5.50;3.75;;;;;;;8.73;90.34;99405.84;5037907;28;20025;-72
2021/11/05 10:35:14;;;;;;;6.18;4.35;;;;;;;9.02;88.50;99411.59;5039844;28;20130;-73
2021/11/05 10:37:42;;;;;;;8.40;4.80;;;;;;;9.12;87.93;99406.81;5043988;28;20033;-75
2021/11/05 10:40:10;;;;;;;7.87;4.47;;;;;;;9.27;85.96;99404.16;5042020;28;20013;-74
2021/11/05 10:42:46;;;;;;;6.50;4.15;;;;;;;9.27;86.06;99404.16;5030489;28;20054;-74
2021/11/05 10:45:23;;;;;;;7.00;4.78;;;;;;;9.38;84.97;99401.06;5015590;28;20487;-69
2021/11/05 10:47:58;;;;;;;6.00;4.05;;;;;;;9.70;86.16;99405.34;5044715;28;20028;-70
2021/11/05 10:50:35;;;;;;;6.15;4.15;;;;;;;10.17;85.80;99412.28;5035272;28;20134;-70
2021/11/05 10:53:15;;;;;;;6.93;4.38;;;;;;;10.01;82.68;99407.91;5030315;28;20059;-70
2021/11/05 10:55:56;;;;;;;6.80;4.25;;;;;;;9.93;83.85;99413.41;5021268;28;20100;-73
2021/11/05 10:58:37;;;;;;;7.05;5.20;;;;;;;9.92;84.78;99410.88;5038934;28;22264;-70
2021/11/05 11:01:15;;;;;;;8.43;4.55;;;;;;;9.94;85.57;99422.34;5061622;28;20053;-67
2021/11/05 11:03:49;;;;;;;7.85;6.15;;;;;;;9.84;84.39;99419.88;5015102;28;20056;-67
2021/11/05 11:06:18;;;;;;;6.97;4.90;;;;;;;9.90;83.79;99429.13;5050813;28;20051;-66
2021/11/05 11:08:45;;;;;;;;;;;;;;;10.13;82.06;99424.50;5033393;28;20026;-66
2021/11/05 11:11:13;;;;;;;7.80;5.47;;;;;;;10.05;80.10;99416.47;5033650;28;20361;-66
2021/11/05 11:13:39;;;;;;;8.00;5.60;;;;;;;10.15;82.38;99432.44;5021787;28;20754;-67
2021/11/05 11:16:08;;;;;;;7.18;5.05;;;;;;;10.25;81.72;99436.53;5021161;28;20677;-67
2021/11/05 11:18:46;;;;;;;8.40;5.75;;;;;;;10.31;80.75;99425.00;5018135;28;20033;-67
2021/11/05 11:21:11;;;;;;;7.00;5.40;;;;;;;10.24;79.13;99406.97;5020038;28;20028;-67
2021/11/05 11:23:38;;;;;;;7.68;5.53;;;;;;;10.28;80.40;99427.25;5020483;28;20773;-67
2021/11/05 11:26:03;;;;;;;8.25;5.57;;;;;;;10.45;79.42;99431.47;5024774;28;20372;-67
2021/11/05 11:28:29;;;;;;;8.43;4.93;;;;;;;10.36;78.36;99415.50;5021289;28;20034;-75